createdAt,value
2023-03-04T00:01:07.811Z,-1.68
2023-03-04T00:04:02.397Z,-1.77
2023-03-04T00:06:51.558Z,-1.86
2023-03-04T00:09:37.894Z,-1.82
2023-03-04T00:12:30.355Z,-1.88
2023-03-04T00:15:21.723Z,-1.98
2023-03-04T00:18:08.375Z,-2.00
2023-03-04T00:20:54.053Z,-1.98
2023-03-04T00:23:41.281Z,-1.98
2023-03-04T00:26:22.024Z,-2.05
2023-03-04T00:29:11.298Z,-2.14
2023-03-04T00:31:54.440Z,-2.12
2023-03-04T00:34:40.708Z,-2.09
2023-03-04T00:37:23.497Z,-2.10
2023-03-04T00:40:05.104Z,-2.13
2023-03-04T00:42:54.784Z,-2.14
2023-03-04T00:45:35.190Z,-2.10
2023-03-04T00:48:18.716Z,-2.17
2023-03-04T00:50:54.514Z,-2.14
2023-03-04T00:53:37.887Z,-2.22
2023-03-04T00:56:27.652Z,-2.29
2023-03-04T00:59:17.021Z,-2.40
2023-03-04T01:02:11.807Z,-2.39
2023-03-04T01:04:53.263Z,-2.38
2023-03-04T01:07:48.528Z,-2.40
2023-03-04T01:10:33.420Z,-2.46
2023-03-04T01:13:24.856Z,-2.55
2023-03-04T01:16:05.149Z,-2.58
2023-03-04T01:18:45.345Z,-2.62
2023-03-04T01:21:33.452Z,-2.66
2023-03-04T01:24:25.216Z,-2.70
2023-03-04T01:27:07.060Z,-2.66
2023-03-04T01:29:53.032Z,-2.68
2023-03-04T01:32:42.137Z,-2.62
2023-03-04T01:35:24.182Z,-2.67
2023-03-04T01:38:10.915Z,-2.68
2023-03-04T01:40:54.826Z,-2.72
2023-03-04T01:44:02.569Z,-2.77
2023-03-04T01:46:38.237Z,-2.78
2023-03-04T01:49:20.947Z,-2.81
2023-03-04T01:52:10.760Z,-2.94
2023-03-04T01:54:54.309Z,-2.89
2023-03-04T01:57:35.243Z,-2.94
2023-03-04T02:00:51.811Z,-3.04
2023-03-04T02:03:37.481Z,-3.12
2023-03-04T02:06:25.581Z,-3.12
2023-03-04T02:09:00.704Z,-3.12
2023-03-04T02:11:39.925Z,-3.14
2023-03-04T02:14:31.344Z,-3.17
2023-03-04T02:17:17.234Z,-3.16
2023-03-04T02:20:13.069Z,-3.15
2023-03-04T02:23:00.269Z,-3.21
2023-03-04T02:26:27.908Z,-3.19
2023-03-04T02:29:15.250Z,-3.19
2023-03-04T02:32:02.445Z,-3.22
2023-03-04T02:34:41.811Z,-3.32
2023-03-04T02:37:18.554Z,-3.46
2023-03-04T02:40:16.912Z,-3.36
2023-03-04T02:42:56.842Z,-3.41
2023-03-04T02:45:55.327Z,-3.46
2023-03-04T02:48:39.376Z,-3.43
2023-03-04T02:51:23.668Z,-3.47
2023-03-04T02:54:07.113Z,-3.55
2023-03-04T02:56:56.726Z,-3.56
2023-03-04T02:59:48.984Z,-3.67
2023-03-04T03:02:35.626Z,-3.80
2023-03-04T03:05:18.761Z,-3.84
2023-03-04T03:07:58.256Z,-3.85
2023-03-04T03:10:52.136Z,-3.88
2023-03-04T03:13:36.039Z,-3.91
2023-03-04T03:16:19.227Z,-3.97
2023-03-04T03:19:02.931Z,-3.93
2023-03-04T03:21:51.224Z,-3.87
2023-03-04T03:24:41.358Z,-4.04
2023-03-04T03:27:23.426Z,-4.02
2023-03-04T03:30:07.218Z,-4.00
2023-03-04T03:32:53.299Z,-4.10
2023-03-04T03:35:38.658Z,-4.16
2023-03-04T03:38:28.819Z,-4.17
2023-03-04T03:41:10.523Z,-4.20
2023-03-04T03:43:57.062Z,-4.19
2023-03-04T03:46:40.364Z,-4.13
2023-03-04T03:49:17.542Z,-4.16
2023-03-04T03:51:58.255Z,-4.19
2023-03-04T03:54:49.506Z,-4.20
2023-03-04T03:57:33.206Z,-4.23
2023-03-04T04:00:20.392Z,-4.34
2023-03-04T04:03:06.878Z,-4.34
2023-03-04T04:05:45.559Z,-4.35
2023-03-04T04:08:36.857Z,-4.29
2023-03-04T04:11:29.379Z,-4.29
2023-03-04T04:14:09.969Z,-4.17
2023-03-04T04:16:52.426Z,-4.28
2023-03-04T04:19:40.512Z,-4.35
2023-03-04T04:22:26.949Z,-4.35
2023-03-04T04:25:12.155Z,-4.32
2023-03-04T04:27:52.641Z,-4.38
2023-03-04T04:30:36.425Z,-4.47
2023-03-04T04:33:16.187Z,-4.53
2023-03-04T04:36:05.445Z,-4.54
2023-03-04T04:38:57.779Z,-4.57
2023-03-04T04:41:46.006Z,-4.63
2023-03-04T04:44:29.595Z,-4.55
2023-03-04T04:47:16.488Z,-4.63
2023-03-04T04:50:02.225Z,-4.79
2023-03-04T04:52:44.689Z,-4.86
2023-03-04T04:55:27.939Z,-4.91
2023-03-04T04:58:10.338Z,-4.95
2023-03-04T05:01:04.988Z,-4.92
2023-03-04T05:03:43.278Z,-4.86
2023-03-04T05:06:26.758Z,-4.96
2023-03-04T05:09:05.055Z,-5.02
2023-03-04T05:11:53.744Z,-4.97
2023-03-04T05:14:43.033Z,-4.87
2023-03-04T05:17:23.138Z,-4.86
2023-03-04T05:20:07.360Z,-4.94
2023-03-04T05:22:50.240Z,-5.04
2023-03-04T05:25:30.926Z,-5.04
2023-03-04T05:28:12.540Z,-4.98
2023-03-04T05:30:52.577Z,-4.92
2023-03-04T05:33:41.409Z,-4.90
2023-03-04T05:36:19.101Z,-4.90
2023-03-04T05:39:09.181Z,-4.93
2023-03-04T05:41:54.987Z,-4.93
2023-03-04T05:44:48.390Z,-4.91
2023-03-04T05:47:31.956Z,-4.92
2023-03-04T05:50:26.772Z,-4.89
2023-03-04T05:53:06.154Z,-4.90
2023-03-04T05:55:53.022Z,-4.90
2023-03-04T05:58:34.814Z,-4.77
2023-03-04T06:01:25.002Z,-4.53
2023-03-04T06:04:08.494Z,-4.37
2023-03-04T06:06:49.230Z,-4.15
2023-03-04T06:09:32.747Z,-4.02
2023-03-04T06:12:11.556Z,-3.89
2023-03-04T06:14:58.963Z,-3.60
2023-03-04T06:17:48.671Z,-3.36
2023-03-04T06:20:30.521Z,-3.11
2023-03-04T06:23:17.519Z,-2.86
2023-03-04T06:26:05.723Z,-2.52
2023-03-04T06:29:03.243Z,-2.22
2023-03-04T06:31:39.031Z,-1.96
2023-03-04T06:34:24.819Z,-1.60
2023-03-04T06:37:15.529Z,-1.28
2023-03-04T06:40:08.320Z,-1.03
2023-03-04T06:42:51.551Z,-0.88
2023-03-04T06:45:44.113Z,-0.65
2023-03-04T06:48:29.947Z,-0.33
2023-03-04T06:51:12.588Z,-0.08
2023-03-04T06:53:59.266Z,0.15
2023-03-04T06:56:48.646Z,0.38
2023-03-04T06:59:31.922Z,0.64
2023-03-04T07:02:27.147Z,0.89
2023-03-04T07:05:15.911Z,1.19
2023-03-04T07:08:07.700Z,1.37
2023-03-04T07:10:51.270Z,1.53
2023-03-04T07:13:38.463Z,1.73
2023-03-04T07:16:18.029Z,1.91
2023-03-04T07:19:04.350Z,2.20
2023-03-04T07:21:52.012Z,2.43
2023-03-04T07:24:36.966Z,2.68
2023-03-04T07:27:17.983Z,2.76
2023-03-04T07:30:06.430Z,2.93
2023-03-04T07:32:56.502Z,3.04
2023-03-04T07:35:42.955Z,3.22
2023-03-04T07:38:34.173Z,3.30
2023-03-04T07:41:31.862Z,3.50
2023-03-04T07:44:19.249Z,3.59
2023-03-04T07:47:10.805Z,3.53
2023-03-04T07:50:03.176Z,3.48
2023-03-04T07:52:45.794Z,3.68
2023-03-04T07:55:28.969Z,4.05
2023-03-04T07:58:10.207Z,4.38
2023-03-04T08:00:59.871Z,4.57
2023-03-04T08:03:47.026Z,4.77
2023-03-04T08:06:38.926Z,5.04
2023-03-04T08:09:29.774Z,5.09
2023-03-04T08:12:10.808Z,5.20
2023-03-04T08:14:54.749Z,5.38
2023-03-04T08:17:39.608Z,5.47
2023-03-04T08:20:17.873Z,5.57
2023-03-04T08:23:05.986Z,5.78
2023-03-04T08:25:56.396Z,5.84
2023-03-04T08:28:45.779Z,5.93
2023-03-04T08:31:31.510Z,6.02
2023-03-04T08:34:18.400Z,6.28
2023-03-04T08:36:59.619Z,6.30
2023-03-04T08:39:36.600Z,6.39
2023-03-04T08:42:25.940Z,6.60
2023-03-04T08:45:16.358Z,6.65
2023-03-04T08:48:02.605Z,6.89
2023-03-04T08:50:42.088Z,6.99
2023-03-04T08:53:22.419Z,7.08
2023-03-04T08:56:06.958Z,7.17
2023-03-04T08:58:54.645Z,7.15
2023-03-04T09:01:38.767Z,7.16
2023-03-04T09:04:24.669Z,7.32
2023-03-04T09:07:11.961Z,7.30
2023-03-04T09:10:03.759Z,7.19
2023-03-04T09:12:42.219Z,7.16
2023-03-04T09:15:36.129Z,7.41
2023-03-04T09:18:14.306Z,7.51
2023-03-04T09:20:58.708Z,7.49
2023-03-04T09:23:43.989Z,7.49
2023-03-04T09:26:23.711Z,7.59
2023-03-04T09:29:34.701Z,7.49
2023-03-04T09:32:21.114Z,7.50
2023-03-04T09:34:59.399Z,7.70
2023-03-04T09:37:49.848Z,7.79
2023-03-04T09:40:48.019Z,7.59
2023-03-04T09:43:34.838Z,7.58
2023-03-04T09:46:23.650Z,7.87
2023-03-04T09:49:06.996Z,7.91
2023-03-04T09:52:14.092Z,8.02
2023-03-04T09:55:17.028Z,8.23
2023-03-04T09:57:59.024Z,8.26
2023-03-04T10:01:05.487Z,8.24
2023-03-04T10:04:16.614Z,8.31
2023-03-04T10:06:54.806Z,8.39
2023-03-04T10:09:48.219Z,8.52
2023-03-04T10:12:30.963Z,8.55
2023-03-04T10:15:23.953Z,8.57
2023-03-04T10:18:09.429Z,8.40
2023-03-04T10:21:01.899Z,8.53
2023-03-04T10:23:37.800Z,8.59
2023-03-04T10:26:26.476Z,8.47
2023-03-04T10:29:10.190Z,8.55
2023-03-04T10:32:02.495Z,8.67
2023-03-04T10:34:47.927Z,8.64
2023-03-04T10:37:49.634Z,9.13
2023-03-04T10:40:35.302Z,8.91
2023-03-04T10:43:22.969Z,8.82
2023-03-04T10:46:06.831Z,8.84
2023-03-04T10:48:49.171Z,8.84
2023-03-04T10:51:44.554Z,8.89
2023-03-04T10:55:00.796Z,9.38
2023-03-04T10:57:49.122Z,9.13
2023-03-04T11:00:38.386Z,9.23
2023-03-04T11:03:33.940Z,9.51
2023-03-04T11:06:22.273Z,9.67
2023-03-04T11:09:23.056Z,9.76
2023-03-04T11:12:16.473Z,9.87
2023-03-04T11:14:57.907Z,9.84
2023-03-04T11:18:06.264Z,9.51
2023-03-04T11:21:08.086Z,9.59
2023-03-04T11:24:04.075Z,9.57
2023-03-04T11:26:59.948Z,9.74
2023-03-04T11:29:46.603Z,9.68
2023-03-04T11:32:35.342Z,9.78
2023-03-04T11:35:53.033Z,9.87
2023-03-04T11:38:51.934Z,10.21
2023-03-04T11:41:57.298Z,9.87
2023-03-04T11:44:44.984Z,9.80
2023-03-04T11:47:49.579Z,10.12
2023-03-04T11:50:58.106Z,9.89
2023-03-04T11:53:45.420Z,10.08
2023-03-04T11:56:46.999Z,9.80
2023-03-04T11:59:54.493Z,10.22
2023-03-04T12:02:48.408Z,9.89
2023-03-04T12:05:53.344Z,9.93
2023-03-04T12:08:41.722Z,9.98
2023-03-04T12:11:42.787Z,10.19
2023-03-04T12:15:00.085Z,10.02
2023-03-04T12:18:14.010Z,10.06
2023-03-04T12:21:27.947Z,10.30
2023-03-04T12:24:12.246Z,10.27
2023-03-04T12:27:19.263Z,10.35
2023-03-04T12:30:08.531Z,10.63
2023-03-04T12:33:13.984Z,10.79
2023-03-04T12:36:01.033Z,10.85
2023-03-04T12:38:56.141Z,10.41
2023-03-04T12:41:59.514Z,10.85
2023-03-04T12:44:43.720Z,11.06
2023-03-04T12:47:41.033Z,11.10
2023-03-04T12:50:21.902Z,11.37
2023-03-04T12:53:39.702Z,11.44
2023-03-04T12:56:36.514Z,11.17
2023-03-04T12:59:22.341Z,11.12
2023-03-04T13:02:52.797Z,11.39
2023-03-04T13:06:00.956Z,11.66
2023-03-04T13:08:46.542Z,11.78
2023-03-04T13:12:05.662Z,11.97
2023-03-04T13:15:30.513Z,12.26
2023-03-04T13:18:22.553Z,11.68
2023-03-04T13:21:14.997Z,11.83
2023-03-04T13:23:59.284Z,11.73
2023-03-04T13:26:55.567Z,11.82
2023-03-04T13:29:38.958Z,11.99
2023-03-04T13:32:45.404Z,11.90
2023-03-04T13:35:50.950Z,11.81
2023-03-04T13:38:44.821Z,11.87
2023-03-04T13:41:54.822Z,11.90
2023-03-04T13:44:55.317Z,11.85
2023-03-04T13:47:44.320Z,12.09
2023-03-04T13:50:35.340Z,12.18
2023-03-04T13:53:32.061Z,12.13
2023-03-04T13:56:29.650Z,12.19
2023-03-04T13:59:18.014Z,12.16
2023-03-04T14:02:42.658Z,12.20
2023-03-04T14:05:28.443Z,12.37
2023-03-04T14:08:28.567Z,11.98
2023-03-04T14:11:25.188Z,11.83
2023-03-04T14:14:15.752Z,11.66
2023-03-04T14:17:10.137Z,11.36
2023-03-04T14:19:58.233Z,11.46
2023-03-04T14:22:59.576Z,11.12
2023-03-04T14:25:48.189Z,10.90
2023-03-04T14:28:27.566Z,10.94
2023-03-04T14:31:17.162Z,10.90
2023-03-04T14:34:10.131Z,10.91
2023-03-04T14:36:57.560Z,10.62
2023-03-04T14:39:42.834Z,10.50
2023-03-04T14:42:43.233Z,10.34
2023-03-04T14:45:36.144Z,10.29
2023-03-04T14:48:19.802Z,10.37
2023-03-04T14:51:10.972Z,10.60
2023-03-04T14:53:55.086Z,10.43
2023-03-04T14:56:38.553Z,10.48
2023-03-04T14:59:34.289Z,10.53
2023-03-04T15:02:40.458Z,10.17
2023-03-04T15:05:31.802Z,10.04
2023-03-04T15:08:30.180Z,10.00
2023-03-04T15:11:17.006Z,9.73
2023-03-04T15:13:58.782Z,9.65
2023-03-04T15:16:56.079Z,9.76
2023-03-04T15:19:39.716Z,9.51
2023-03-04T15:22:26.085Z,9.44
2023-03-04T15:25:20.627Z,9.42
2023-03-04T15:28:07.949Z,9.24
2023-03-04T15:30:55.836Z,9.40
2023-03-04T15:33:39.552Z,9.39
2023-03-04T15:36:23.053Z,9.55
2023-03-04T15:39:09.058Z,9.51
2023-03-04T15:41:50.701Z,9.58
2023-03-04T15:44:46.309Z,9.55
2023-03-04T15:47:37.182Z,9.23
2023-03-04T15:50:26.180Z,9.55
2023-03-04T15:53:12.072Z,9.54
2023-03-04T15:55:56.459Z,9.31
2023-03-04T15:58:43.774Z,9.05
2023-03-04T16:01:40.961Z,8.99
2023-03-04T16:04:25.798Z,8.96
2023-03-04T16:07:20.921Z,8.99
2023-03-04T16:10:07.925Z,8.29
2023-03-04T16:13:00.246Z,7.79
2023-03-04T16:15:59.959Z,7.69
2023-03-04T16:18:44.953Z,7.32
2023-03-04T16:21:31.385Z,7.31
2023-03-04T16:24:20.197Z,7.08
2023-03-04T16:27:12.210Z,6.98
2023-03-04T16:29:47.310Z,6.90
2023-03-04T16:32:35.118Z,6.88
2023-03-04T16:35:20.287Z,6.71
2023-03-04T16:38:01.601Z,6.65
2023-03-04T16:40:44.126Z,6.57
2023-03-04T16:43:28.171Z,6.46
2023-03-04T16:46:15.901Z,6.47
2023-03-04T16:49:07.668Z,6.37
2023-03-04T16:51:57.491Z,6.34
2023-03-04T16:54:42.953Z,6.33
2023-03-04T16:57:31.926Z,6.26
2023-03-04T17:00:11.950Z,6.23
2023-03-04T17:02:56.947Z,6.20
2023-03-04T17:05:38.224Z,6.10
2023-03-04T17:08:18.008Z,6.11
2023-03-04T17:11:09.257Z,6.04
2023-03-04T17:13:54.553Z,6.03
2023-03-04T17:16:41.638Z,5.97
2023-03-04T17:19:20.975Z,5.91
2023-03-04T17:22:03.300Z,5.91
2023-03-04T17:24:51.910Z,5.80
2023-03-04T17:27:50.412Z,5.70
2023-03-04T17:30:47.693Z,5.61
2023-03-04T17:33:42.163Z,5.61
2023-03-04T17:36:30.837Z,5.56
2023-03-04T17:39:20.392Z,5.51
2023-03-04T17:41:59.738Z,5.42
2023-03-04T17:44:38.929Z,5.36
2023-03-04T17:47:17.809Z,5.35
2023-03-04T17:50:09.682Z,5.30
2023-03-04T17:52:56.032Z,5.26
2023-03-04T17:55:44.547Z,5.08
2023-03-04T17:58:31.431Z,4.88
2023-03-04T18:01:25.745Z,4.74
2023-03-04T18:04:07.921Z,4.67
2023-03-04T18:06:54.214Z,4.54
2023-03-04T18:09:30.791Z,4.52
2023-03-04T18:12:15.742Z,4.33
2023-03-04T18:15:01.178Z,4.34
2023-03-04T18:17:51.296Z,4.18
2023-03-04T18:20:41.545Z,4.12
2023-03-04T18:23:26.772Z,4.04
2023-03-04T18:26:04.921Z,4.00
2023-03-04T18:28:46.047Z,3.88
2023-03-04T18:31:43.416Z,3.90
2023-03-04T18:34:26.640Z,3.85
2023-03-04T18:37:11.106Z,3.72
2023-03-04T18:39:59.784Z,3.69
2023-03-04T18:42:49.206Z,3.51
2023-03-04T18:45:32.743Z,3.53
2023-03-04T18:48:18.977Z,3.46
2023-03-04T18:51:10.556Z,3.39
2023-03-04T18:53:53.864Z,3.37
2023-03-04T18:57:17.507Z,3.40
2023-03-04T19:00:10.532Z,3.30
2023-03-04T19:03:04.091Z,3.21
2023-03-04T19:05:43.875Z,3.20
2023-03-04T19:08:37.997Z,3.14
2023-03-04T19:11:18.572Z,2.96
2023-03-04T19:14:06.451Z,3.10
2023-03-04T19:16:56.826Z,2.93
2023-03-04T19:19:45.167Z,2.86
2023-03-04T19:22:25.250Z,2.75
2023-03-04T19:25:15.998Z,2.72
2023-03-04T19:28:01.175Z,2.71
2023-03-04T19:30:39.891Z,2.76
2023-03-04T19:33:36.315Z,2.63
2023-03-04T19:36:19.953Z,2.60
2023-03-04T19:39:13.238Z,2.63
2023-03-04T19:41:53.925Z,2.44
2023-03-04T19:44:38.260Z,2.46
2023-03-04T19:47:25.840Z,2.46
2023-03-04T19:50:13.307Z,2.28
2023-03-04T19:52:56.455Z,2.39
2023-03-04T19:55:43.684Z,2.29
2023-03-04T19:58:30.973Z,2.23
2023-03-04T20:01:25.137Z,2.15
2023-03-04T20:04:10.092Z,2.20
2023-03-04T20:06:55.796Z,2.04
2023-03-04T20:09:40.499Z,2.02
2023-03-04T20:12:26.371Z,2.18
2023-03-04T20:15:11.801Z,2.18
2023-03-04T20:18:01.741Z,1.97
2023-03-04T20:20:54.658Z,2.07
2023-03-04T20:23:38.933Z,1.97
2023-03-04T20:26:30.769Z,1.84
2023-03-04T20:29:21.981Z,1.84
2023-03-04T20:32:03.869Z,1.81
2023-03-04T20:35:07.497Z,1.82
2023-03-04T20:37:57.447Z,1.78
2023-03-04T20:40:40.525Z,1.80
2023-03-04T20:43:23.528Z,1.87
2023-03-04T20:46:18.385Z,1.91
2023-03-04T20:49:04.331Z,1.98
2023-03-04T20:51:48.940Z,1.97
2023-03-04T20:54:38.476Z,1.92
2023-03-04T20:57:22.286Z,2.05
2023-03-04T21:00:18.657Z,1.97
2023-03-04T21:03:05.912Z,2.00
2023-03-04T21:05:49.088Z,1.88
2023-03-04T21:08:35.991Z,1.85
2023-03-04T21:11:21.261Z,1.72
2023-03-04T21:14:30.285Z,1.71
2023-03-04T21:17:15.957Z,1.61
2023-03-04T21:20:03.378Z,1.79
2023-03-04T21:22:49.105Z,1.64
2023-03-04T21:25:36.981Z,1.68
2023-03-04T21:28:15.367Z,1.65
2023-03-04T21:31:00.938Z,1.64
2023-03-04T21:33:41.182Z,1.72
2023-03-04T21:36:22.700Z,1.71
2023-03-04T21:39:15.864Z,1.66
2023-03-04T21:41:57.516Z,1.70
2023-03-04T21:44:49.732Z,1.71
2023-03-04T21:47:28.348Z,1.64
2023-03-04T21:50:12.939Z,1.62
2023-03-04T21:53:00.882Z,1.70
2023-03-04T21:55:48.924Z,1.56
2023-03-04T21:58:35.480Z,1.54
2023-03-04T22:01:29.774Z,1.55
2023-03-04T22:04:17.965Z,1.56
2023-03-04T22:07:01.385Z,1.61
2023-03-04T22:09:47.165Z,1.59
2023-03-04T22:12:37.073Z,1.60
2023-03-04T22:15:18.333Z,1.64
2023-03-04T22:18:07.953Z,1.63
2023-03-04T22:20:59.169Z,1.57
2023-03-04T22:23:56.086Z,1.54
2023-03-04T22:26:48.345Z,1.61
2023-03-04T22:29:34.978Z,1.58
2023-03-04T22:32:21.950Z,1.46
2023-03-04T22:35:02.621Z,1.35
2023-03-04T22:37:48.343Z,1.26
2023-03-04T22:40:38.651Z,1.14
2023-03-04T22:43:23.993Z,1.08
2023-03-04T22:46:10.944Z,0.96
2023-03-04T22:49:02.291Z,1.13
2023-03-04T22:51:45.966Z,1.17
2023-03-04T22:54:33.228Z,1.27
2023-03-04T22:57:11.385Z,1.38
2023-03-04T23:00:04.372Z,1.35
2023-03-04T23:02:56.508Z,1.44
2023-03-04T23:05:34.789Z,1.33
2023-03-04T23:08:21.396Z,1.42
2023-03-04T23:11:27.015Z,1.37
2023-03-04T23:14:13.375Z,1.47
2023-03-04T23:16:56.722Z,1.42
2023-03-04T23:19:40.910Z,1.46
2023-03-04T23:22:19.055Z,1.43
2023-03-04T23:25:02.310Z,1.45
2023-03-04T23:27:53.552Z,1.42
2023-03-04T23:30:35.985Z,1.37
2023-03-04T23:33:19.588Z,1.33
2023-03-04T23:36:04.706Z,1.20
2023-03-04T23:38:55.318Z,1.16
2023-03-04T23:41:36.727Z,1.08
2023-03-04T23:44:21.253Z,1.05
2023-03-04T23:47:11.906Z,1.03
2023-03-04T23:49:49.501Z,1.16
2023-03-04T23:52:33.556Z,1.25
2023-03-04T23:55:19.921Z,1.21
2023-03-04T23:58:00.859Z,0.99
